Lawrenceburg, IN

1:17 AM EDT on July 01, 2015 (GMT -0400)
Perfect North Slopes Pump House | | Change Station
CLOSE
Current Station
Personal Weather Station
Location: Lawrenceburg, IN
Elevation: 509 ft
Nearby Weather Stations

Elev 509 ft 39.15 °N, 84.89 °W | Updated 22 seconds ago

Partly Cloudy
Partly Cloudy
61.9 °F
Feels Like 61.9 °F
N
0.0
Wind Variable Wind from SW
Gusts 1.0 mph

Today
High -- | Low -- °F
--% Chance of Precip.
Yesterday
High -- | Low -- °F
Precip. -- in
6:17 AM 9:09 PM
Waxing Gibbous, 99% visible
Pressure 29.87 in
Visibility 4.0 miles
Clouds Few 5500 ft
Dew Point 61 °F
Humidity 97%
Rainfall 0.00 in
Snow Depth Not available.
UV 0 out of 12
Pollen 2.40 out of 12
Air Quality Not available.
Flu Activity Not available.
METAR KCVG 010452Z 24004KT 4SM BR FEW055 18/17 A2989 RMK AO2 SLP114 T01780167 402610172

More Conditions Fewer Conditions

Pressure 29.87 in
Visibility 4.0 miles
Clouds Few 5500 ft
Dew Point 61 °F
Humidity 97%
Rainfall 0.00 in
Snow Depth Not available.
UV 0 out of 12
Pollen 2.40 out of 12
Air Quality Not available.
Flu Activity Not available.
METAR KCVG 010452Z 24004KT 4SM BR FEW055 18/17 A2989 RMK AO2 SLP114 T01780167 402610172

More Conditions Fewer Conditions

10-Day Weather Forecast

×

Almanac

Astronomy

Jul. 01, 2015 Rise Set
Actual Time
Civil Twilight
Nautical Twilight
Astronomical Twilight
Moon
Length of Visible Light
Length of Day
Tomorrow will be .
, % of the Moon is Illuminated

Today's Extremes

State Highs State Lows

Community

WunderPhotos

Upload Photos

1,834,148 photos uploaded!

WunderBlogs® & News

Nearby

Air Quality

  Air Quality AQ Index Pollutant
Not available.

Snow Depth

Station Depth Elevation

Earthquake Activity

City Distance Mag. Time & Date
Minimum magnitude displayed is 2.5.

Coastal Water Temperatures

Place Temperature

Stations

Nearby Weather Stations

Station Location Temp. Windchill Dew Point Humidity Wind Precip. Elev Updated Type